Time;durP1;ratioP1;P1;durP2;ratioP2;P2;SDS_P1;SDS_P2;PMS_P1;PMS_P2;Temp;Humidity;BMP_temperature;BMP_pressure;BME280_temperature;BME280_humidity;BME280_pressure;Samples;Min_cycle;Max_cycle;Signal;HPM_P1;HPM_P2
2022/02/13 00:02:05;;;;;;;;;;;;;;;23.24;20.71;99598.97;4996195;28;989;-71
2022/02/13 00:04:31;;;;;;;;;;;;;;;23.24;20.50;99604.66;4995825;28;1062;-71
2022/02/13 00:06:56;;;;;;;;;;;;;;;22.69;21.26;99601.75;4995926;28;948;-71
2022/02/13 00:09:22;;;;;;;;;;;;;;;22.38;21.34;99609.22;4995955;28;911;-72
2022/02/13 00:11:47;;;;;;;;;;;;;;;22.46;21.57;99605.94;4995714;28;1036;-71
2022/02/13 00:14:13;;;;;;;;;;;;;;;22.73;20.95;99614.72;4995940;28;1069;-71
2022/02/13 00:16:38;;;;;;;;;;;;;;;23.14;20.51;99602.72;4995962;28;925;-71
2022/02/13 00:19:04;;;;;;;;;;;;;;;23.13;20.72;99618.13;4998722;28;1902;-71
2022/02/13 00:21:29;;;;;;;;;;;;;;;23.26;20.67;99607.91;4999185;28;1050;-71
2022/02/13 00:23:55;;;;;;;;;;;;;;;22.93;20.78;99611.38;4964673;28;1036;-72
2022/02/13 00:26:20;;;;;;;;;;;;;;;22.45;21.44;99598.66;4999482;28;932;-71
2022/02/13 00:28:46;;;;;;;;;;;;;;;22.46;21.67;99605.94;4999051;28;1093;-71
2022/02/13 00:31:11;;;;;;;;;;;;;;;22.87;21.13;99599.63;4999435;28;955;-71
2022/02/13 00:33:36;;;;;;;;;;;;;;;22.97;20.76;99600.81;4999196;28;1201;-71
2022/02/13 00:36:02;;;;;;;;;;;;;;;23.16;20.57;99608.81;4999100;28;957;-71
2022/02/13 00:38:27;;;;;;;;;;;;;;;23.22;20.38;99595.75;4999019;28;1910;-71
2022/02/13 00:40:53;;;;;;;;;;;;;;;23.10;20.45;99593.41;4998978;28;936;-71
2022/02/13 00:43:18;;;;;;;;;;;;;;;22.55;21.21;99591.31;4964210;28;981;-71
2022/02/13 00:45:44;;;;;;;;;;;;;;;22.33;21.53;99594.25;4999130;28;940;-71
2022/02/13 00:48:10;;;;;;;;;;;;;;;22.78;20.81;99594.41;4999259;28;903;-71
2022/02/13 00:50:36;;;;;;;;;;;;;;;23.07;20.60;99588.59;4964426;28;1063;-71
2022/02/13 00:53:01;;;;;;;;;;;;;;;23.08;20.73;99587.34;4998850;28;1019;-72
2022/02/13 00:55:28;;;;;;;;;;;;;;;23.23;20.51;99591.69;4998561;28;860;-71
2022/02/13 00:57:54;;;;;;;;;;;;;;;23.18;20.38;99594.19;4995690;28;1898;-71
2022/02/13 01:00:19;;;;;;;;;;;;;;;23.14;20.44;99595.00;4998793;28;904;-71
2022/02/13 01:02:44;;;;;;;;;;;;;;;22.84;20.62;99598.41;4998668;28;915;-71
2022/02/13 01:05:10;;;;;;;;;;;;;;;22.50;21.21;99588.91;4998617;28;951;-71
2022/02/13 01:07:35;;;;;;;;;;;;;;;22.55;21.41;99580.78;4998635;28;1078;-71
2022/02/13 01:10:01;;;;;;;;;;;;;;;23.01;20.69;99579.72;4998328;28;1036;-71
2022/02/13 01:12:26;;;;;;;;;;;;;;;23.09;20.29;99581.25;4997920;28;1349;-71
2022/02/13 01:14:52;;;;;;;;;;;;;;;23.25;20.22;99582.75;4998130;28;988;-71
2022/02/13 01:17:17;;;;;;;;;;;;;;;23.29;20.39;99578.66;4997827;28;1906;-71
2022/02/13 01:19:43;;;;;;;;;;;;;;;23.27;20.48;99575.44;4963999;28;1044;-71
2022/02/13 01:22:10;;;;;;;;;;;;;;;22.99;20.74;99573.63;4998476;28;955;-71
2022/02/13 01:24:35;;;;;;;;;;;;;;;22.66;21.19;99563.69;4997985;28;992;-71
2022/02/13 01:27:01;;;;;;;;;;;;;;;22.64;21.05;99571.81;4963400;28;974;-71
2022/02/13 01:29:26;;;;;;;;;;;;;;;23.05;20.46;99556.94;4997993;28;905;-71
2022/02/13 01:31:52;;;;;;;;;;;;;;;23.20;20.49;99552.75;4998142;28;988;-71
2022/02/13 01:34:18;;;;;;;;;;;;;;;23.25;20.09;99549.47;4997976;28;992;-71
2022/02/13 01:36:47;;;;;;;;;;;;;;;23.10;20.39;99547.97;4963779;28;1424;-71
2022/02/13 01:39:12;;;;;;;;;;;;;;;23.14;20.52;99545.94;4997797;28;1914;-71
2022/02/13 01:41:38;;;;;;;;;;;;;;;22.70;21.00;99540.97;4997981;28;1002;-71
2022/02/13 01:44:03;;;;;;;;;;;;;;;22.38;21.20;99541.16;4997652;28;975;-72
2022/02/13 01:46:29;;;;;;;;;;;;;;;22.82;20.57;99544.13;4963106;28;1005;-71
2022/02/13 01:48:54;;;;;;;;;;;;;;;22.92;20.63;99544.50;4997848;28;1084;-71
2022/02/13 01:51:20;;;;;;;;;;;;;;;23.01;20.55;99539.16;4997757;28;934;-71
2022/02/13 01:53:45;;;;;;;;;;;;;;;23.15;20.53;99541.84;4997782;28;987;-72
2022/02/13 01:56:12;;;;;;;;;;;;;;;22.94;20.49;99544.88;4997531;28;925;-71
2022/02/13 01:58:38;;;;;;;;;;;;;;;22.45;21.00;99541.13;4997731;28;1914;-71
2022/02/13 02:01:09;;;;;;;;;;;;;;;22.40;21.18;99535.88;4956257;28;1113;-71
2022/02/13 02:03:36;;;;;;;;;;;;;;;22.78;20.67;99537.66;4956467;29;939;-71
2022/02/13 02:06:01;;;;;;;;;;;;;;;22.99;20.67;99548.06;4956328;28;1125;-71
2022/02/13 02:08:27;;;;;;;;;;;;;;;23.19;20.20;99528.44;4936899;29;1443;-72
2022/02/13 02:10:52;;;;;;;;;;;;;;;23.02;20.74;99535.09;4937191;29;942;-71
2022/02/13 02:13:18;;;;;;;;;;;;;;;22.88;20.72;99541.66;4936681;29;1256;-71
2022/02/13 02:15:43;;;;;;;;;;;;;;;22.51;21.14;99545.94;4937414;29;1037;-72
2022/02/13 02:18:09;;;;;;;;;;;;;;;22.31;21.52;99539.16;4936573;29;1910;-71
2022/02/13 02:20:34;;;;;;;;;;;;;;;22.70;20.96;99536.09;4937101;29;964;-71
2022/02/13 02:22:59;;;;;;;;;;;;;;;23.02;20.48;99540.75;4936512;29;973;-71
2022/02/13 02:25:25;;;;;;;;;;;;;;;23.25;20.13;99535.28;4937012;29;984;-71
2022/02/13 02:27:50;;;;;;;;;;;;;;;23.16;20.04;99540.66;4936643;29;1017;-71
2022/02/13 02:30:16;;;;;;;;;;;;;;;22.69;20.64;99533.66;4936882;29;1017;-71
2022/02/13 02:32:41;;;;;;;;;;;;;;;22.54;21.27;99533.78;4951664;29;991;-71
2022/02/13 02:35:07;;;;;;;;;;;;;;;22.83;20.62;99547.75;4955867;29;1033;-71
2022/02/13 02:37:32;;;;;;;;;;;;;;;23.01;20.41;99534.28;4955788;29;1973;-71
2022/02/13 02:39:58;;;;;;;;;;;;;;;23.31;19.95;99536.47;4985208;28;984;-71
2022/02/13 02:42:23;;;;;;;;;;;;;;;23.20;20.04;99534.91;4996590;28;1169;-71
2022/02/13 02:44:49;;;;;;;;;;;;;;;22.77;20.56;99535.25;4996764;28;957;-71
2022/02/13 02:47:14;;;;;;;;;;;;;;;22.56;21.08;99536.19;4996726;28;930;-71
2022/02/13 02:49:40;;;;;;;;;;;;;;;22.82;20.61;99529.13;4962187;28;1038;-71
2022/02/13 02:52:05;;;;;;;;;;;;;;;23.05;20.36;99528.56;4996701;28;978;-71
2022/02/13 02:54:31;;;;;;;;;;;;;;;23.24;20.16;99530.81;4978947;28;1433;-71
2022/02/13 02:56:57;;;;;;;;;;;;;;;22.60;20.66;99526.44;4955349;28;1015;-71
2022/02/13 02:59:22;;;;;;;;;;;;;;;22.39;21.20;99531.44;4955185;29;2032;-71
2022/02/13 03:01:48;;;;;;;;;;;;;;;22.68;21.03;99532.84;4955456;29;910;-71
2022/02/13 03:04:13;;;;;;;;;;;;;;;23.00;20.36;99543.19;4955560;28;1065;-71
2022/02/13 03:06:40;;;;;;;;;;;;;;;23.18;20.09;99532.50;4955432;29;1056;-71
2022/02/13 03:09:05;;;;;;;;;;;;;;;23.16;20.46;99532.13;4955590;29;892;-71
2022/02/13 03:11:31;;;;;;;;;;;;;;;22.73;20.81;99538.09;4955259;28;1028;-71
2022/02/13 03:13:57;;;;;;;;;;;;;;;22.65;20.79;99527.22;4932467;29;1216;-71
2022/02/13 03:16:22;;;;;;;;;;;;;;;22.75;20.63;99524.31;4916951;29;1083;-71
2022/02/13 03:18:48;;;;;;;;;;;;;;;23.02;20.41;99523.72;4917153;29;1911;-71
2022/02/13 03:21:13;;;;;;;;;;;;;;;23.18;20.22;99526.84;4917260;29;1089;-71
2022/02/13 03:23:39;;;;;;;;;;;;;;;23.07;20.18;99537.47;4916998;29;976;-71
2022/02/13 03:26:05;;;;;;;;;;;;;;;22.68;20.84;99521.50;4917166;29;1118;-71
2022/02/13 03:28:30;;;;;;;;;;;;;;;22.63;20.86;99519.91;4930619;29;1041;-71
2022/02/13 03:30:55;;;;;;;;;;;;;;;22.91;20.68;99520.97;4936166;29;1141;-71
2022/02/13 03:33:21;;;;;;;;;;;;;;;22.95;20.29;99520.94;4935747;29;1030;-71
2022/02/13 03:35:46;;;;;;;;;;;;;;;23.11;20.38;99518.38;4936234;29;976;-71
2022/02/13 03:38:13;;;;;;;;;;;;;;;22.62;20.67;99520.34;4936216;29;1907;-71
2022/02/13 03:40:39;;;;;;;;;;;;;;;22.44;20.95;99519.66;4936025;29;913;-71
2022/02/13 03:43:05;;;;;;;;;;;;;;;22.90;20.55;99510.03;4936216;29;1084;-71
2022/02/13 03:45:32;;;;;;;;;;;;;;;23.06;20.30;99518.84;4935864;29;1039;-71
2022/02/13 03:47:57;;;;;;;;;;;;;;;23.20;20.18;99518.69;4935824;29;1172;-71
2022/02/13 03:50:23;;;;;;;;;;;;;;;23.18;20.11;99515.47;4939336;28;1021;-71
2022/02/13 03:52:48;;;;;;;;;;;;;;;22.63;20.80;99510.59;4977728;28;942;-71
2022/02/13 03:55:16;;;;;;;;;;;;;;;22.52;20.93;99515.53;4980229;28;919;-71
2022/02/13 03:57:42;;;;;;;;;;;;;;;22.77;20.87;99509.69;4980619;28;1902;-71
2022/02/13 04:00:07;;;;;;;;;;;;;;;23.03;20.37;99509.09;4980520;28;950;-71
2022/02/13 04:02:42;;;;;;;;;;;;;;;23.19;20.04;99505.72;4948382;28;1008;-71
2022/02/13 04:05:08;;;;;;;;;;;;;;;23.03;20.21;99496.94;4980295;28;960;-71
2022/02/13 04:07:34;;;;;;;;;;;;;;;22.60;20.69;99502.94;4958011;29;1106;-71
2022/02/13 04:09:59;;;;;;;;;;;;;;;22.53;21.01;99508.63;4958271;29;977;-71
2022/02/13 04:12:25;;;;;;;;;;;;;;;22.93;20.52;99498.66;4943970;28;1074;-71
2022/02/13 04:14:51;;;;;;;;;;;;;;;23.18;20.38;99504.13;4977559;28;998;-71
2022/02/13 04:17:17;;;;;;;;;;;;;;;23.09;20.37;99506.63;4977660;28;1975;-71
2022/02/13 04:19:42;;;;;;;;;;;;;;;23.06;20.16;99507.47;4977653;28;1038;-71
2022/02/13 04:22:08;;;;;;;;;;;;;;;22.67;20.61;99505.72;4977580;28;1020;-71
2022/02/13 04:24:33;;;;;;;;;;;;;;;22.41;21.20;99500.63;4977427;28;939;-71
2022/02/13 04:26:59;;;;;;;;;;;;;;;22.90;20.80;99504.34;4977702;28;1099;-71
2022/02/13 04:29:24;;;;;;;;;;;;;;;22.98;20.63;99509.56;4977322;28;1212;-71
2022/02/13 04:31:49;;;;;;;;;;;;;;;23.21;20.32;99503.28;4977579;28;1197;-71
2022/02/13 04:34:15;;;;;;;;;;;;;;;23.24;20.30;99496.75;4977283;28;1039;-72
2022/02/13 04:36:41;;;;;;;;;;;;;;;22.71;20.91;99509.34;4977324;28;952;-71
2022/02/13 04:39:06;;;;;;;;;;;;;;;22.42;21.26;99505.06;4993377;28;1986;-71
2022/02/13 04:41:32;;;;;;;;;;;;;;;22.77;20.70;99507.66;4957836;29;925;-71
2022/02/13 04:43:57;;;;;;;;;;;;;;;23.14;20.49;99509.00;4958094;29;1033;-71
2022/02/13 04:46:22;;;;;;;;;;;;;;;23.19;20.58;99517.06;4957732;29;1097;-71
2022/02/13 04:48:48;;;;;;;;;;;;;;;23.12;20.10;99508.63;4941512;29;1005;-71
2022/02/13 04:51:13;;;;;;;;;;;;;;;22.58;20.81;99505.38;4957732;29;1071;-71
2022/02/13 04:53:39;;;;;;;;;;;;;;;22.60;20.89;99505.78;4957845;29;1016;-72
2022/02/13 04:56:04;;;;;;;;;;;;;;;22.93;20.90;99506.38;4957594;28;1058;-71
2022/02/13 04:58:33;;;;;;;;;;;;;;;23.13;20.49;99507.41;4957689;28;1906;-72
2022/02/13 05:00:58;;;;;;;;;;;;;;;23.24;20.22;99516.63;4957618;29;967;-71
2022/02/13 05:03:24;;;;;;;;;;;;;;;22.82;20.83;99509.25;4957298;28;957;-71
2022/02/13 05:05:53;;;;;;;;;;;;;;;22.43;21.52;99510.31;4957590;29;972;-71
2022/02/13 05:08:18;;;;;;;;;;;;;;;22.71;21.02;99515.00;4957202;29;1022;-71
2022/02/13 05:10:44;;;;;;;;;;;;;;;23.05;20.35;99522.88;4957549;29;1049;-71
2022/02/13 05:13:09;;;;;;;;;;;;;;;23.25;20.23;99514.59;4988690;28;1010;-71
2022/02/13 05:15:35;;;;;;;;;;;;;;;22.94;20.60;99516.50;4998475;28;972;-72
2022/02/13 05:18:01;;;;;;;;;;;;;;;22.81;20.70;99525.47;4997883;28;1931;-71
2022/02/13 05:20:26;;;;;;;;;;;;;;;22.60;21.20;99526.44;4998501;28;907;-71
2022/02/13 05:22:52;;;;;;;;;;;;;;;22.78;20.73;99516.97;4998177;28;1061;-71
2022/02/13 05:25:17;;;;;;;;;;;;;;;23.12;20.65;99520.00;4998079;28;1070;-71
2022/02/13 05:27:43;;;;;;;;;;;;;;;23.12;20.67;99525.69;4998228;28;944;-71
2022/02/13 05:30:08;;;;;;;;;;;;;;;23.20;20.54;99529.25;4998022;28;1035;-71
2022/02/13 05:32:34;;;;;;;;;;;;;;;23.15;20.46;99527.66;4997902;28;952;-71
2022/02/13 05:34:59;;;;;;;;;;;;;;;23.26;20.29;99517.03;4997917;28;1042;-71
2022/02/13 05:37:25;;;;;;;;;;;;;;;22.72;21.03;99515.81;4997883;28;1910;-71
2022/02/13 05:39:50;;;;;;;;;;;;;;;22.45;21.46;99518.44;4997771;28;952;-71
2022/02/13 05:42:16;;;;;;;;;;;;;;;22.87;20.65;99523.81;4997826;28;962;-71
2022/02/13 05:44:41;;;;;;;;;;;;;;;23.17;20.48;99516.69;4997914;28;1037;-71
2022/02/13 05:47:07;;;;;;;;;;;;;;;23.23;20.53;99529.22;4997454;28;1005;-71
2022/02/13 05:49:32;;;;;;;;;;;;;;;23.13;20.61;99530.94;4997483;28;1193;-71
2022/02/13 05:51:58;;;;;;;;;;;;;;;22.73;21.17;99529.59;4963135;28;900;-71
2022/02/13 05:54:23;;;;;;;;;;;;;;;22.65;21.18;99532.91;4997503;28;1052;-71
2022/02/13 05:56:49;;;;;;;;;;;;;;;22.77;21.08;99529.56;4975702;28;1120;-71
2022/02/13 05:59:15;;;;;;;;;;;;;;;23.00;20.59;99531.84;4975909;28;1914;-71
2022/02/13 06:01:41;;;;;;;;;;;;;;;23.01;20.68;99528.59;4937007;29;1189;-71
2022/02/13 06:04:06;;;;;;;;;;;;;;;23.18;20.47;99532.50;4937303;29;1017;-71
2022/02/13 06:06:32;;;;;;;;;;;;;;;22.99;20.56;99535.91;4937043;29;984;-71
2022/02/13 06:08:57;;;;;;;;;;;;;;;22.61;20.99;99522.38;4937437;29;977;-71
2022/02/13 06:11:23;;;;;;;;;;;;;;;22.50;21.48;99540.69;4937271;29;1141;-71
2022/02/13 06:13:48;;;;;;;;;;;;;;;22.86;21.07;99527.88;4937083;29;1092;-71
2022/02/13 06:16:14;;;;;;;;;;;;;;;23.01;20.88;99527.81;4936291;29;1085;-71
2022/02/13 06:18:39;;;;;;;;;;;;;;;23.06;20.89;99533.84;4936753;29;1906;-71
2022/02/13 06:21:04;;;;;;;;;;;;;;;23.01;20.63;99524.97;4936885;29;1009;-71
2022/02/13 06:23:30;;;;;;;;;;;;;;;22.55;21.48;99524.03;4936909;29;999;-71
2022/02/13 06:25:57;;;;;;;;;;;;;;;22.26;21.57;99517.72;4936836;29;1043;-71
2022/02/13 06:28:22;;;;;;;;;;;;;;;22.77;21.24;99524.69;4950778;29;919;-71
2022/02/13 06:30:47;;;;;;;;;;;;;;;22.94;20.80;99522.16;4955906;29;947;-71
2022/02/13 06:33:14;;;;;;;;;;;;;;;22.95;20.98;99523.78;4971309;28;1028;-71
2022/02/13 06:35:40;;;;;;;;;;;;;;;23.17;20.61;99519.53;4977552;28;981;-71
2022/02/13 06:38:05;;;;;;;;;;;;;;;23.25;20.37;99523.91;4977563;28;1911;-71
2022/02/13 06:40:31;;;;;;;;;;;;;;;22.57;21.16;99520.78;4976953;28;1078;-71
2022/02/13 06:42:56;;;;;;;;;;;;;;;22.55;21.13;99517.56;4977558;28;969;-71
2022/02/13 06:45:21;;;;;;;;;;;;;;;22.44;21.58;99519.66;4993925;28;1262;-72
2022/02/13 06:47:47;;;;;;;;;;;;;;;22.78;20.95;99526.31;5016406;28;1041;-71
2022/02/13 06:50:12;;;;;;;;;;;;;;;22.84;20.87;99518.94;5016196;28;952;-71
2022/02/13 06:52:38;;;;;;;;;;;;;;;23.08;20.66;99513.53;5016141;28;954;-71
2022/02/13 06:55:04;;;;;;;;;;;;;;;23.20;20.60;99513.00;4994392;28;1143;-71
2022/02/13 06:57:29;;;;;;;;;;;;;;;23.21;20.69;99508.13;4994209;28;1915;-71
2022/02/13 06:59:54;;;;;;;;;;;;;;;22.77;20.90;99515.38;4994150;28;1056;-71
2022/02/13 07:02:20;;;;;;;;;;;;;;;22.50;21.62;99512.31;4994156;28;967;-71
2022/02/13 07:04:45;;;;;;;;;;;;;;;22.50;21.51;99506.66;4994229;28;1035;-71
2022/02/13 07:07:11;;;;;;;;;;;;;;;22.83;21.05;99503.16;4977888;28;951;-71
2022/02/13 07:09:37;;;;;;;;;;;;;;;22.98;20.86;99505.91;4994240;28;1009;-71
2022/02/13 07:12:09;;;;;;;;;;;;;;;22.95;20.97;99503.91;4993764;28;1007;-71
2022/02/13 07:14:37;;;;;;;;;;;;;;;23.03;20.69;99499.78;4993266;28;1375;-71
2022/02/13 07:17:03;;;;;;;;;;;;;;;23.06;20.58;99496.13;4974735;28;960;-71
2022/02/13 07:19:29;;;;;;;;;;;;;;;22.65;21.14;99507.38;4974389;28;1993;-71
2022/02/13 07:21:54;;;;;;;;;;;;;;;22.34;21.45;99502.28;4974696;28;1015;-71
2022/02/13 07:24:20;;;;;;;;;;;;;;;22.51;21.75;99494.06;4974277;28;953;-71
2022/02/13 07:26:45;;;;;;;;;;;;;;;22.98;21.08;99503.06;4975541;28;964;-71
2022/02/13 07:29:11;;;;;;;;;;;;;;;23.08;20.94;99499.34;4978470;28;1026;-71
2022/02/13 07:31:37;;;;;;;;;;;;;;;23.11;20.67;99492.84;4978071;28;981;-71
2022/02/13 07:34:03;;;;;;;;;;;;;;;23.05;20.97;99497.31;4978446;28;1033;-71
2022/02/13 07:36:29;;;;;;;;;;;;;;;23.20;20.72;99495.97;4939809;29;994;-71
2022/02/13 07:38:55;;;;;;;;;;;;;;;22.72;21.06;99493.13;4939619;29;1911;-71
2022/02/13 07:41:20;;;;;;;;;;;;;;;22.48;21.60;99483.56;4939572;29;1111;-71
2022/02/13 07:43:46;;;;;;;;;;;;;;;22.76;21.17;99477.69;4939508;29;1044;-71
2022/02/13 07:46:12;;;;;;;;;;;;;;;22.88;20.81;99491.38;4939491;29;976;-71
2022/02/13 07:48:37;;;;;;;;;;;;;;;23.04;20.69;99481.53;4953593;29;1007;-71
2022/02/13 07:51:03;;;;;;;;;;;;;;;23.11;20.67;99487.16;4958487;29;1019;-71
2022/02/13 07:53:28;;;;;;;;;;;;;;;23.04;20.67;99490.03;4958552;29;1015;-71
2022/02/13 07:55:54;;;;;;;;;;;;;;;23.20;20.58;99484.63;4958804;29;1068;-71
2022/02/13 07:58:19;;;;;;;;;;;;;;;23.21;20.72;99483.41;4958469;29;1903;-71
2022/02/13 08:00:45;;;;;;;;;;;;;;;22.69;21.33;99486.25;4958652;29;998;-71
2022/02/13 08:03:10;;;;;;;;;;;;;;;22.46;21.55;99486.00;4972741;28;974;-71
2022/02/13 08:05:38;;;;;;;;;;;;;;;22.70;21.16;99479.34;4977672;28;1003;-71
2022/02/13 08:08:04;;;;;;;;;;;;;;;22.95;21.17;99484.88;4992008;28;981;-71
2022/02/13 08:10:30;;;;;;;;;;;;;;;22.98;20.78;99486.03;5028656;28;910;-71
2022/02/13 08:12:55;;;;;;;;;;;;;;;23.12;20.65;99483.88;5038937;28;1233;-71
2022/02/13 08:15:21;;;;;;;;;;;;;;;23.06;20.75;99481.94;5039135;28;948;-71
2022/02/13 08:17:46;;;;;;;;;;;;;;;22.51;21.51;99494.06;5038789;28;1898;-71
2022/02/13 08:20:14;;;;;;;;;;;;;;;22.48;21.49;99483.56;5038924;28;877;-71
2022/02/13 08:22:39;;;;;;;;;;;;;;;22.64;21.27;99481.03;5039012;28;1080;-71
2022/02/13 08:25:05;;;;;;;;;;;;;;;22.91;20.87;99477.59;4987538;28;965;-71
2022/02/13 08:27:31;;;;;;;;;;;;;;;23.03;20.84;99477.06;5038558;28;984;-71
2022/02/13 08:29:57;;;;;;;;;;;;;;;23.04;20.66;99475.84;5038313;28;1064;-71
2022/02/13 08:32:26;;;;;;;;;;;;;;;23.07;20.61;99475.03;5038403;28;1039;-71
2022/02/13 08:34:53;;;;;;;;;;;;;;;22.48;21.77;99477.88;5038387;28;1181;-71
2022/02/13 08:37:18;;;;;;;;;;;;;;;22.28;21.99;99475.59;5038495;28;874;-71
2022/02/13 08:39:44;;;;;;;;;;;;;;;22.77;21.27;99473.63;5037598;28;1922;-71
2022/02/13 08:42:09;;;;;;;;;;;;;;;22.92;21.09;99473.53;5038407;28;1030;-71
2022/02/13 08:44:35;;;;;;;;;;;;;;;23.03;20.91;99468.56;5038775;28;955;-71
2022/02/13 08:47:00;;;;;;;;;;;;;;;23.00;21.01;99464.53;5038179;28;926;-71
2022/02/13 08:49:26;;;;;;;;;;;;;;;23.08;21.02;99466.06;5038117;28;927;-71
2022/02/13 08:51:51;;;;;;;;;;;;;;;23.12;20.69;99460.38;5037957;28;1008;-71
2022/02/13 08:54:16;;;;;;;;;;;;;;;23.35;20.82;99468.25;5038249;28;986;-71
2022/02/13 08:56:42;;;;;;;;;;;;;;;22.69;21.21;99465.56;5037842;28;923;-71
2022/02/13 08:59:08;;;;;;;;;;;;;;;22.37;21.90;99460.94;5038023;28;1958;-71
2022/02/13 09:01:35;;;;;;;;;;;;;;;22.54;21.74;99473.41;5038116;28;948;-71
2022/02/13 09:04:00;;;;;;;;;;;;;;;22.83;21.18;99459.78;5037815;28;937;-71
2022/02/13 09:06:26;;;;;;;;;;;;;;;23.01;21.02;99460.47;5038394;28;931;-71
2022/02/13 09:08:51;;;;;;;;;;;;;;;23.12;21.05;99460.38;5037925;28;942;-71
2022/02/13 09:11:17;;;;;;;;;;;;;;;23.17;20.78;99456.28;5037958;28;938;-71
2022/02/13 09:13:42;;;;;;;;;;;;;;;23.27;20.71;99455.34;5037894;28;1057;-71
2022/02/13 09:16:08;;;;;;;;;;;;;;;22.67;21.47;99448.97;5037844;28;930;-71
2022/02/13 09:18:34;;;;;;;;;;;;;;;22.39;21.85;99452.84;5037835;28;1910;-71
2022/02/13 09:20:59;;;;;;;;;;;;;;;22.44;21.94;99449.56;5037902;28;955;-71
2022/02/13 09:23:25;;;;;;;;;;;;;;;22.79;21.42;99448.44;5037737;28;1097;-71
2022/02/13 09:25:50;;;;;;;;;;;;;;;23.09;20.94;99438.50;5037378;28;876;-71
2022/02/13 09:28:16;;;;;;;;;;;;;;;23.19;21.00;99443.25;5037350;28;905;-71
2022/02/13 09:30:43;;;;;;;;;;;;;;;23.31;20.68;99439.91;5037633;28;1044;-71
2022/02/13 09:33:09;;;;;;;;;;;;;;;23.04;21.01;99430.44;4986675;28;1027;-71
2022/02/13 09:35:34;;;;;;;;;;;;;;;22.59;21.57;99434.06;5037546;28;871;-71
2022/02/13 09:38:00;;;;;;;;;;;;;;;22.31;22.04;99426.53;5002481;28;1992;-71
2022/02/13 09:40:32;;;;;;;;;;;;;;;22.81;21.41;99431.03;5037401;28;961;-71
2022/02/13 09:42:58;;;;;;;;;;;;;;;23.08;21.01;99422.69;5037608;28;934;-71
2022/02/13 09:45:23;;;;;;;;;;;;;;;23.20;20.78;99422.13;4975882;28;1057;-71
2022/02/13 09:47:49;;;;;;;;;;;;;;;23.19;20.65;99420.53;4976087;28;1078;-71
2022/02/13 09:50:14;;;;;;;;;;;;;;;23.19;20.96;99425.41;4955591;28;968;-71
2022/02/13 09:52:39;;;;;;;;;;;;;;;23.33;20.65;99403.34;4956475;28;1198;-71
2022/02/13 09:55:05;;;;;;;;;;;;;;;23.11;20.61;99404.81;4937193;29;950;-71
2022/02/13 10:00:15;;;;;;;;;;;;;;;22.33;22.01;99395.75;4937383;29;1034;-71
2022/02/13 10:02:41;;;;;;;;;;;;;;;22.85;21.11;99403.44;4937139;29;1078;-71
2022/02/13 10:05:08;;;;;;;;;;;;;;;23.06;20.87;99393.91;4937393;29;953;-71
2022/02/13 10:07:33;;;;;;;;;;;;;;;23.46;20.58;99385.75;4917641;29;1721;-71
2022/02/13 10:09:59;;;;;;;;;;;;;;;23.20;20.83;99382.38;4917772;29;1292;-71
2022/02/13 10:12:31;;;;;;;;;;;;;;;23.19;20.67;99380.78;4917818;29;1253;-71
2022/02/13 10:14:57;;;;;;;;;;;;;;;23.07;20.72;99384.16;4906124;29;2039;-71
2022/02/13 10:17:22;;;;;;;;;;;;;;;22.66;21.36;99387.78;4899233;29;1025;-72
2022/02/13 10:19:54;;;;;;;;;;;;;;;22.46;21.52;99383.91;4899041;29;1915;-72
2022/02/13 10:22:33;;;;;;;;;;;;;;;22.88;21.08;99377.06;4916747;29;1040;-73
2022/02/13 10:25:12;;;;;;;;;;;;;;;23.15;20.90;99374.31;4917853;29;1289;-72
2022/02/13 10:27:44;;;;;;;;;;;;;;;23.14;20.71;99364.22;4917783;29;961;-72
2022/02/13 10:30:10;;;;;;;;;;;;;;;23.22;20.72;99367.78;4917670;29;1023;-72
2022/02/13 10:32:37;;;;;;;;;;;;;;;23.35;20.36;99361.13;4918618;29;1013;-72
2022/02/13 10:35:06;;;;;;;;;;;;;;;22.38;21.48;99328.44;4936611;29;1177;-72
2022/02/13 10:37:35;;;;;;;;;;;;;;;22.45;21.75;99368.13;4938116;29;1994;-72
2022/02/13 10:40:02;;;;;;;;;;;;;;;22.76;21.29;99361.34;4955897;28;1048;-72
2022/02/13 10:42:28;;;;;;;;;;;;;;;22.95;21.25;99353.47;4955952;28;1007;-72
2022/02/13 10:44:57;;;;;;;;;;;;;;;22.94;21.17;99351.84;4964481;28;983;-72
2022/02/13 10:47:25;;;;;;;;;;;;;;;22.95;21.03;99340.09;4975133;28;1015;-72
2022/02/13 10:49:52;;;;;;;;;;;;;;;23.07;20.83;99338.75;4974832;28;970;-72
2022/02/13 10:52:17;;;;;;;;;;;;;;;22.73;21.16;99338.66;4975005;28;1132;-72
2022/02/13 10:54:43;;;;;;;;;;;;;;;22.57;21.27;99339.22;4974865;28;1010;-72
2022/02/13 10:57:08;;;;;;;;;;;;;;;22.63;21.54;99327.00;4955679;28;1134;-72
2022/02/13 10:59:34;;;;;;;;;;;;;;;22.86;21.29;99311.38;4955464;28;1985;-72
2022/02/13 11:02:00;;;;;;;;;;;;;;;23.06;20.82;99308.75;4955127;29;957;-72
2022/02/13 11:04:27;;;;;;;;;;;;;;;23.12;20.71;99315.56;4939182;29;1148;-72
2022/02/13 11:06:52;;;;;;;;;;;;;;;23.26;20.51;99312.56;4917160;29;1087;-72
2022/02/13 11:09:23;;;;;;;;;;;;;;;22.77;21.34;99309.03;4917319;29;1219;-72
2022/02/13 11:11:51;;;;;;;;;;;;;;;22.43;21.91;99320.28;4917157;29;1209;-72
2022/02/13 11:14:22;;;;;;;;;;;;;;;22.58;21.68;99318.13;4917053;29;1417;-72
2022/02/13 11:16:49;;;;;;;;;;;;;;;22.99;21.20;99308.81;4917164;29;959;-72
2022/02/13 11:19:14;;;;;;;;;;;;;;;22.78;21.41;99315.50;4917257;29;1911;-72
2022/02/13 11:21:41;;;;;;;;;;;;;;;22.99;20.94;99303.94;4885582;29;1049;-72
2022/02/13 11:24:06;;;;;;;;;;;;;;;23.08;20.88;99301.41;4917269;29;1053;-72
2022/02/13 11:26:35;;;;;;;;;;;;;;;23.08;20.80;99300.59;4917028;29;957;-72
2022/02/13 11:29:01;;;;;;;;;;;;;;;22.86;20.93;99300.81;4916829;29;936;-73
2022/02/13 11:31:33;;;;;;;;;;;;;;;22.45;21.70;99280.19;4917060;29;1044;-72
2022/02/13 11:33:58;;;;;;;;;;;;;;;22.54;21.60;99286.19;4931765;28;1061;-72
2022/02/13 11:36:39;;;;;;;;;;;;;;;22.78;21.19;99282.25;4974721;28;995;-72
2022/02/13 11:39:06;;;;;;;;;;;;;;;22.88;21.04;99275.69;4965157;28;1922;-72
2022/02/13 11:41:50;;;;;;;;;;;;;;;23.03;20.97;99275.53;5015868;28;924;-72
2022/02/13 11:44:35;;;;;;;;;;;;;;;23.04;20.95;99271.44;5016020;28;1113;-72
2022/02/13 11:47:00;;;;;;;;;;;;;;;22.68;20.98;99260.47;5015771;28;955;-72
2022/02/13 11:49:26;;;;;;;;;;;;;;;22.43;21.83;99262.78;5016089;28;944;-72
2022/02/13 11:51:55;;;;;;;;;;;;;;;22.38;21.75;99268.91;5015673;28;814;-72
2022/02/13 11:54:42;;;;;;;;;;;;;;;22.95;21.29;99257.78;5015812;28;910;-72
2022/02/13 11:57:17;;;;;;;;;;;;;;;22.90;21.29;99261.09;5015818;28;947;-72
2022/02/13 11:59:52;;;;;;;;;;;;;;;23.14;20.74;99259.16;5015319;28;1914;-72
2022/02/13 12:02:30;;;;;;;;;;;;;;;23.19;20.93;99249.38;5015556;28;1342;-72
2022/02/13 12:05:07;;;;;;;;;;;;;;;23.27;20.70;99251.69;5015492;28;1042;-70
2022/02/13 12:07:42;;;;;;;;;;;;;;;22.73;21.38;99250.72;5015540;28;962;-70
2022/02/13 12:10:11;;;;;;;;;;;;;;;22.30;21.82;99246.28;5015518;28;921;-70
2022/02/13 12:12:36;;;;;;;;;;;;;;;22.61;21.51;99240.72;5015516;28;1351;-69
2022/02/13 12:15:02;;;;;;;;;;;;;;;22.90;21.29;99243.22;4976688;28;1069;-72
2022/02/13 12:17:28;;;;;;;;;;;;;;;22.97;21.02;99231.81;4958114;28;964;-72
2022/02/13 12:20:00;;;;;;;;;;;;;;;23.15;20.94;99232.38;4958245;28;2006;-72
2022/02/13 12:22:25;;;;;;;;;;;;;;;23.17;20.61;99224.25;4958089;28;1029;-72
2022/02/13 12:24:51;;;;;;;;;;;;;;;22.75;21.37;99225.56;4941802;28;987;-72
2022/02/13 12:27:17;;;;;;;;;;;;;;;22.33;21.64;99225.63;4957857;28;1011;-72
2022/02/13 12:30:08;;;;;;;;;;;;;;;22.44;21.49;99224.72;4958223;29;1062;-72
2022/02/13 12:32:34;;;;;;;;;;;;;;;22.98;21.28;99225.69;4900975;29;1448;-72
2022/02/13 12:35:06;;;;;;;;;;;;;;;23.08;20.88;99221.13;4901065;29;1065;-72
2022/02/13 12:37:34;;;;;;;;;;;;;;;22.96;20.89;99213.19;4900686;29;2014;-72
2022/02/13 12:40:00;;;;;;;;;;;;;;;23.09;21.06;99217.03;4900709;29;1105;-72
2022/02/13 12:42:26;;;;;;;;;;;;;;;23.03;20.95;99210.22;4900496;29;1147;-72
2022/02/13 12:44:52;;;;;;;;;;;;;;;22.53;21.66;99214.44;4900879;29;1099;-72
2022/02/13 12:47:24;;;;;;;;;;;;;;;22.38;21.78;99207.31;4901135;29;976;-72
2022/02/13 12:49:50;;;;;;;;;;;;;;;22.70;21.43;99211.84;4920785;29;1035;-72
2022/02/13 12:52:15;;;;;;;;;;;;;;;22.99;20.84;99203.78;4938518;29;978;-72
2022/02/13 12:54:42;;;;;;;;;;;;;;;23.22;20.59;99195.38;4906972;29;1142;-72
2022/02/13 12:57:17;;;;;;;;;;;;;;;23.25;20.44;99194.50;4938468;29;1057;-72
2022/02/13 12:59:42;;;;;;;;;;;;;;;23.34;20.66;99194.78;4938501;29;1985;-72